Time;durP1;ratioP1;P1;durP2;ratioP2;P2;SDS_P1;SDS_P2;PMS_P1;PMS_P2;Temp;Humidity;BMP_temperature;BMP_pressure;BME280_temperature;BME280_humidity;BME280_pressure;Samples;Min_cycle;Max_cycle;Signal;HPM_P1;HPM_P2
2022/12/06 00:02:05;;;;;;;6.07;4.17;;;;;;;5.03;90.89;95763.78;4931587;29;20308;-80
2022/12/06 00:04:32;;;;;;;5.00;4.50;;;;;;;5.00;90.71;95766.63;4935004;29;20288;-80
2022/12/06 00:06:59;;;;;;;5.37;4.70;;;;;;;5.02;90.88;95767.25;4938374;29;20200;-80
2022/12/06 00:09:28;;;;;;;6.43;4.47;;;;;;;5.02;90.74;95767.25;4929484;29;20308;-81
2022/12/06 00:11:55;;;;;;;5.63;4.43;;;;;;;5.00;90.94;95763.25;4937598;29;20747;-80
2022/12/06 00:14:22;;;;;;;4.57;4.13;;;;;;;4.98;90.56;95770.25;4938092;29;20280;-80
2022/12/06 00:16:51;;;;;;;5.17;4.37;;;;;;;5.01;90.65;95769.94;4938333;29;20292;-79
2022/12/06 00:19:20;;;;;;;4.93;4.43;;;;;;;5.02;90.56;95772.38;4937202;29;20227;-80
2022/12/06 00:21:47;;;;;;;4.60;4.20;;;;;;;5.02;90.50;95774.91;4938012;29;20201;-80
2022/12/06 00:24:15;;;;;;;4.57;4.17;;;;;;;5.04;90.64;95778.13;4938387;29;20190;-81
2022/12/06 00:26:44;;;;;;;4.17;3.77;;;;;;;5.01;90.21;95773.31;4938591;29;20205;-81
2022/12/06 00:29:13;;;;;;;5.40;4.10;;;;;;;5.01;89.93;95785.25;4938278;29;20664;-80
2022/12/06 00:31:39;;;;;;;4.90;4.40;;;;;;;5.03;90.40;95783.38;4938270;29;20646;-81
2022/12/06 00:34:08;;;;;;;4.70;4.30;;;;;;;5.02;90.59;95784.31;4938453;29;20283;-81
2022/12/06 00:36:36;;;;;;;5.13;4.37;;;;;;;5.01;90.15;95780.97;4938770;29;20281;-81
2022/12/06 00:39:06;;;;;;;4.50;4.10;;;;;;;4.94;90.33;95787.56;4938474;29;20308;-81
2022/12/06 00:41:32;;;;;;;4.80;4.30;;;;;;;4.94;90.86;95787.56;4938333;29;20288;-81
2022/12/06 00:43:59;;;;;;;4.80;4.00;;;;;;;4.97;90.50;95789.03;4938051;29;20289;-81
2022/12/06 00:46:28;;;;;;;5.10;4.10;;;;;;;5.00;90.26;95781.94;4937995;29;20205;-81
2022/12/06 00:48:56;;;;;;;5.13;4.37;;;;;;;5.00;90.31;95781.94;4938055;29;20248;-81
2022/12/06 00:51:25;;;;;;;4.50;4.10;;;;;;;5.02;90.68;95779.22;4938998;29;20257;-81
2022/12/06 00:53:52;;;;;;;4.43;4.00;;;;;;;5.03;90.43;95779.06;4937693;29;20293;-80
2022/12/06 00:56:19;;;;;;;4.60;4.20;;;;;;;5.02;90.28;95781.75;4938719;29;20297;-80
2022/12/06 00:58:46;;;;;;;5.37;4.63;;;;;;;5.00;89.94;95778.56;4938361;29;20252;-79
2022/12/06 01:01:15;;;;;;;5.20;4.43;;;;;;;4.99;89.81;95775.22;4937851;29;20280;-80
2022/12/06 01:03:42;;;;;;;5.23;4.60;;;;;;;5.00;89.84;95766.63;4938317;29;20596;-80
2022/12/06 01:06:12;;;;;;;6.70;4.40;;;;;;;4.97;89.75;95769.44;4938747;29;20701;-79
2022/12/06 01:08:41;;;;;;;6.13;4.80;;;;;;;4.98;90.00;95763.41;4937483;29;20213;-81
2022/12/06 01:11:08;;;;;;;5.20;4.70;;;;;;;4.98;89.68;95752.38;4938869;29;20635;-81
2022/12/06 01:13:35;;;;;;;5.93;4.83;;;;;;;4.95;89.76;95755.22;4938545;29;20198;-81
2022/12/06 01:16:05;;;;;;;5.47;4.50;;;;;;;4.95;90.07;95753.47;4934900;29;20204;-81
2022/12/06 01:18:32;;;;;;;5.47;4.57;;;;;;;4.97;90.46;95755.88;4935072;29;20592;-81
2022/12/06 01:21:03;;;;;;;6.07;4.57;;;;;;;5.00;89.99;95750.50;4935430;29;20206;-81
2022/12/06 01:23:30;;;;;;;5.63;5.03;;;;;;;5.01;89.70;95742.69;4935033;29;20198;-80
2022/12/06 01:25:57;;;;;;;5.53;4.93;;;;;;;4.97;89.71;95741.38;4935411;29;20209;-81
2022/12/06 01:28:24;;;;;;;5.20;4.70;;;;;;;5.00;89.25;95740.31;4934640;29;20221;-80
2022/12/06 01:30:50;;;;;;;5.57;4.97;;;;;;;4.99;89.24;95742.03;4934701;29;20209;-81
2022/12/06 01:33:17;;;;;;;6.07;5.40;;;;;;;5.01;89.32;95744.44;4935366;29;20213;-80
2022/12/06 01:35:43;;;;;;;6.13;4.67;;;;;;;5.00;89.06;95751.31;4935061;29;20206;-80
2022/12/06 01:38:11;;;;;;;4.93;4.43;;;;;;;5.00;89.32;95755.59;4934503;29;20224;-81
2022/12/06 01:40:39;;;;;;;5.80;5.20;;;;;;;4.96;89.29;95755.06;4934886;29;20198;-79
2022/12/06 01:43:29;;;;;;;5.43;4.93;;;;;;;4.99;89.27;95749.69;4934722;29;20204;-80
2022/12/06 01:45:56;;;;;;;5.40;4.90;;;;;;;4.99;89.13;95752.25;4934930;29;20194;-80
2022/12/06 01:48:26;;;;;;;5.30;4.80;;;;;;;4.99;89.09;95742.03;4934249;29;20599;-81
2022/12/06 01:50:53;;;;;;;5.87;5.20;;;;;;;4.99;89.04;95741.25;4935012;29;20209;-81
2022/12/06 01:53:21;;;;;;;6.13;5.50;;;;;;;4.97;88.69;95738.03;4933184;29;20221;-81
2022/12/06 01:55:48;;;;;;;5.80;4.87;;;;;;;4.95;88.68;95742.44;4934137;29;20197;-80
2022/12/06 01:58:19;;;;;;;5.40;4.90;;;;;;;4.91;88.56;95739.38;4934031;29;20218;-80
2022/12/06 02:00:46;;;;;;;6.00;5.40;;;;;;;4.91;88.83;95731.72;4934369;29;20676;-80
2022/12/06 02:03:18;;;;;;;5.83;4.80;;;;;;;4.88;88.77;95738.84;4933926;29;20221;-80
2022/12/06 02:05:45;;;;;;;5.93;5.27;;;;;;;4.84;88.92;95731.44;4933242;29;20224;-79
2022/12/06 02:08:13;;;;;;;6.00;5.40;;;;;;;4.83;88.96;95739.25;4934048;29;20225;-80
2022/12/06 02:10:40;;;;;;;5.67;5.10;;;;;;;4.79;88.98;95736.19;4933827;29;20205;-81
2022/12/06 02:13:07;;;;;;;6.10;5.40;;;;;;;4.75;89.66;95728.94;4934293;29;20225;-80
2022/12/06 02:15:46;;;;;;;6.07;5.30;;;;;;;4.75;89.02;95726.38;4934238;29;20197;-79
2022/12/06 02:18:19;;;;;;;6.27;4.90;;;;;;;4.75;89.60;95716.19;4933641;29;20216;-80
2022/12/06 02:20:52;;;;;;;6.30;5.47;;;;;;;4.69;89.69;95714.97;4933626;29;20197;-80
2022/12/06 02:23:39;;;;;;;5.27;4.77;;;;;;;4.69;90.00;95714.97;4933730;29;20213;-80
2022/12/06 02:26:27;;;;;;;5.73;5.03;;;;;;;4.69;89.28;95707.31;4933547;29;20200;-81
2022/12/06 02:29:19;;;;;;;6.20;5.37;;;;;;;4.71;89.62;95707.19;4933284;29;20226;-81
2022/12/06 02:31:50;;;;;;;6.33;5.00;;;;;;;4.68;89.29;95705.72;4933566;29;20209;-81
2022/12/06 02:34:22;;;;;;;7.43;5.57;;;;;;;4.66;89.26;95699.13;4933981;29;20190;-79
2022/12/06 02:36:56;;;;;;;6.30;4.97;;;;;;;4.60;89.37;95702.25;4933148;29;20820;-81
2022/12/06 02:39:27;;;;;;;6.03;5.43;;;;;;;4.53;89.51;95702.00;4932922;29;20233;-80
2022/12/06 02:41:58;;;;;;;6.27;5.40;;;;;;;4.54;89.75;95701.06;4933222;29;20288;-80
2022/12/06 02:44:30;;;;;;;6.57;5.37;;;;;;;4.58;89.41;95696.47;4925122;29;20197;-81
2022/12/06 02:46:59;;;;;;;6.23;5.63;;;;;;;4.57;89.66;95689.78;4933154;29;20677;-81
2022/12/06 02:49:28;;;;;;;6.03;5.40;;;;;;;4.57;89.65;95700.78;4932463;29;20233;-80
2022/12/06 02:51:55;;;;;;;6.73;5.43;;;;;;;4.59;89.62;95685.34;4931811;29;20753;-78
2022/12/06 02:54:25;;;;;;;6.10;5.50;;;;;;;4.59;89.24;95693.81;4932893;29;20217;-79
2022/12/06 02:56:51;;;;;;;6.70;5.60;;;;;;;4.56;89.10;95696.63;4933091;29;20213;-81
2022/12/06 02:59:18;;;;;;;6.57;5.77;;;;;;;4.59;89.23;95690.44;4932621;29;20217;-79
2022/12/06 03:01:48;;;;;;;6.93;5.37;;;;;;;4.60;89.27;95692.88;4932182;29;20211;-80
2022/12/06 03:04:47;;;;;;;7.43;5.77;;;;;;;4.59;89.34;95691.25;4932208;29;20198;-80
2022/12/06 03:07:28;;;;;;;6.83;6.00;;;;;;;4.60;88.84;95684.41;4923950;29;20277;-81
2022/12/06 03:10:03;;;;;;;6.70;5.57;;;;;;;4.62;89.26;95679.97;4932383;29;20193;-80
2022/12/06 03:12:33;;;;;;;6.40;5.70;;;;;;;4.63;89.24;95684.09;4932504;29;20306;-79
2022/12/06 03:15:08;;;;;;;6.60;5.97;;;;;;;4.61;89.00;95678.38;4933225;29;20204;-81
2022/12/06 03:17:40;;;;;;;7.00;6.30;;;;;;;4.62;89.12;95685.84;4932039;29;20205;-81
2022/12/06 03:20:14;;;;;;;5.97;5.30;;;;;;;4.56;89.03;95686.41;4932047;29;20241;-80
2022/12/06 03:22:45;;;;;;;6.97;5.73;;;;;;;4.57;89.14;95685.47;4932907;29;20197;-80
2022/12/06 03:25:13;;;;;;;6.70;5.80;;;;;;;4.55;89.29;95681.47;4932513;29;20214;-79
2022/12/06 03:27:40;;;;;;;6.57;5.87;;;;;;;4.49;89.28;95681.06;4932003;29;20617;-81
2022/12/06 03:30:11;;;;;;;6.30;5.70;;;;;;;4.51;89.23;95674.06;4932299;29;20228;-80
2022/12/06 03:32:40;;;;;;;6.17;5.37;;;;;;;4.50;89.34;95675.03;4932109;29;20216;-81
2022/12/06 03:35:12;;;;;;;5.93;5.33;;;;;;;4.41;89.15;95675.03;4932817;29;20205;-80
2022/12/06 03:37:44;;;;;;;6.57;5.93;;;;;;;4.45;89.84;95678.91;4932015;29;20186;-81
2022/12/06 03:40:17;;;;;;;6.10;5.50;;;;;;;4.47;89.67;95680.38;4932061;29;20212;-81
2022/12/06 03:42:43;;;;;;;6.03;5.43;;;;;;;4.48;89.63;95678.63;4932212;29;20197;-80
2022/12/06 03:45:12;;;;;;;6.93;6.10;;;;;;;4.49;89.64;95683.59;4932136;29;20216;-81
2022/12/06 03:47:45;;;;;;;7.30;6.30;;;;;;;4.50;89.94;95677.56;4931350;29;20186;-81
2022/12/06 03:50:19;;;;;;;7.10;5.60;;;;;;;4.48;89.06;95691.38;4932379;29;20201;-80
2022/12/06 03:52:46;;;;;;;6.80;6.10;;;;;;;4.49;89.25;95682.78;4930885;29;20769;-81
2022/12/06 03:55:12;;;;;;;6.87;6.10;;;;;;;4.47;88.99;95682.94;4932539;29;20213;-80
2022/12/06 03:57:39;;;;;;;6.77;5.87;;;;;;;4.48;88.83;95681.19;4931102;29;20201;-81
2022/12/06 04:00:07;;;;;;;8.17;6.27;;;;;;;4.47;88.75;95680.38;4932543;29;20577;-81
2022/12/06 04:02:33;;;;;;;6.90;5.87;;;;;;;4.46;88.54;95685.63;4932303;29;20194;-80
2022/12/06 04:04:59;;;;;;;6.90;6.10;;;;;;;4.45;88.38;95676.34;4932282;29;20295;-81
2022/12/06 04:07:27;;;;;;;9.20;6.03;;;;;;;4.41;88.42;95675.84;4931563;29;20201;-79
2022/12/06 04:10:01;;;;;;;7.40;6.50;;;;;;;4.42;88.19;95671.56;4932265;29;20220;-80
2022/12/06 04:15:23;;;;;;;6.93;5.90;;;;;;;4.39;88.64;95669.28;4891250;29;20230;-81
2022/12/06 04:23:16;;;;;;;7.50;6.00;;;;;;;4.33;88.42;95665.53;4931279;29;20642;-81
2022/12/06 04:25:42;;;;;;;7.20;6.17;;;;;;;4.35;88.00;95665.38;4932009;29;20366;-80
2022/12/06 04:39:06;;;;;;;7.00;5.97;;;;;;;4.27;87.62;95663.50;4931388;29;20308;-81
2022/12/06 04:44:17;;;;;;;8.30;6.40;;;;;;;4.28;87.80;95656.66;4931827;29;20831;-80
2022/12/06 04:46:44;;;;;;;7.60;6.37;;;;;;;4.30;87.70;95664.97;4931262;29;20201;-81
2022/12/06 04:49:11;;;;;;;7.00;6.30;;;;;;;4.30;87.29;95664.97;4931636;29;20816;-81
2022/12/06 04:51:38;;;;;;;7.43;6.43;;;;;;;4.28;86.99;95657.47;4933367;29;20201;-80
2022/12/06 04:54:06;;;;;;;8.07;6.67;;;;;;;4.29;86.87;95653.19;4934262;29;20228;-80
2022/12/06 04:56:34;;;;;;;7.00;6.30;;;;;;;4.26;86.92;95649.16;4926975;29;20206;-80
2022/12/06 04:59:01;;;;;;;7.93;6.37;;;;;;;4.26;87.42;95656.00;4934901;29;20217;-80
2022/12/06 05:01:27;;;;;;;7.83;6.20;;;;;;;4.23;87.05;95656.28;4934549;29;20194;-80
2022/12/06 05:03:54;;;;;;;7.67;6.53;;;;;;;4.23;86.88;95653.75;4933227;29;20228;-81
2022/12/06 05:06:20;;;;;;;8.17;6.43;;;;;;;4.15;86.90;95655.22;4935390;29;20375;-81
2022/12/06 05:08:46;;;;;;;9.07;7.13;;;;;;;4.12;86.67;95652.13;4934923;29;20724;-81
2022/12/06 05:11:13;;;;;;;7.67;6.63;;;;;;;4.10;87.04;95656.56;4935037;29;20205;-81
2022/12/06 05:13:41;;;;;;;7.73;6.37;;;;;;;4.06;86.97;95658.56;4934427;29;20217;-80
2022/12/06 05:16:09;;;;;;;8.03;6.77;;;;;;;4.02;86.53;95653.88;4935301;29;20841;-81
2022/12/06 05:18:36;;;;;;;7.77;6.87;;;;;;;4.02;87.12;95657.25;4934942;29;20721;-79
2022/12/06 05:21:04;;;;;;;9.93;6.87;;;;;;;3.99;86.73;95654.16;4934552;29;20295;-81
2022/12/06 05:23:31;;;;;;;8.60;7.43;;;;;;;3.97;86.48;95659.38;4934898;29;20220;-80
2022/12/06 05:25:59;;;;;;;8.27;6.90;;;;;;;3.98;86.72;95660.19;4934676;29;20573;-80
2022/12/06 05:28:25;;;;;;;8.20;7.30;;;;;;;3.94;86.31;95663.94;4934874;29;20233;-80
2022/12/06 05:30:53;;;;;;;8.20;7.37;;;;;;;3.88;86.26;95665.25;4935465;29;20208;-82
2022/12/06 05:33:19;;;;;;;8.77;6.87;;;;;;;3.78;89.65;95661.91;4935098;29;20226;-80
2022/12/06 05:35:46;;;;;;;8.00;6.97;;;;;;;3.79;87.33;95674.53;4935756;29;20202;-82
2022/12/06 05:38:12;;;;;;;7.87;6.70;;;;;;;3.79;87.52;95661.78;4935244;29;20237;-81
2022/12/06 05:40:39;;;;;;;8.77;6.87;;;;;;;3.78;86.89;95660.16;4933831;29;20205;-80
2022/12/06 05:43:06;;;;;;;8.20;6.97;;;;;;;3.78;87.11;95665.25;4934209;29;20677;-81
2022/12/06 05:45:33;;;;;;;8.27;7.00;;;;;;;3.79;86.64;95664.31;4934388;29;20216;-81
2022/12/06 05:48:00;;;;;;;9.33;7.40;;;;;;;3.75;86.61;95662.97;4931785;29;20221;-80
2022/12/06 05:50:27;;;;;;;9.20;7.40;;;;;;;3.75;86.70;95659.63;4933615;29;20214;-80
2022/12/06 05:52:54;;;;;;;9.00;7.40;;;;;;;3.73;86.57;95657.22;4934118;29;20230;-81
2022/12/06 05:55:20;;;;;;;9.90;7.90;;;;;;;3.75;86.68;95655.34;4934914;29;20214;-80
2022/12/06 05:57:48;;;;;;;9.17;8.00;;;;;;;3.74;87.20;95650.38;4934376;29;20565;-81
2022/12/06 06:00:15;;;;;;;9.17;7.77;;;;;;;3.75;86.68;95655.34;4934652;29;20206;-81
2022/12/06 06:02:41;;;;;;;10.00;8.20;;;;;;;3.69;86.98;95657.59;4934077;29;20206;-81
2022/12/06 06:05:09;;;;;;;9.70;8.53;;;;;;;3.73;87.18;95657.22;4934593;29;20563;-81
2022/12/06 06:07:36;;;;;;;9.20;7.73;;;;;;;3.73;87.11;95647.03;4934050;29;20289;-81
2022/12/06 06:10:03;;;;;;;10.27;8.70;;;;;;;3.73;87.29;95649.56;4934292;29;20205;-80
2022/12/06 06:12:29;;;;;;;11.07;8.47;;;;;;;3.73;88.43;95654.66;4933862;29;20212;-81
2022/12/06 06:14:56;;;;;;;11.50;8.70;;;;;;;3.80;90.21;95654.94;4935066;29;20228;-82
2022/12/06 06:17:23;;;;;;;19.50;14.53;;;;;;;3.78;88.13;95649.19;4934651;29;20205;-80
2022/12/06 06:19:49;;;;;;;22.63;15.70;;;;;;;3.81;87.77;95648.91;4934159;29;20257;-80
2022/12/06 06:22:18;;;;;;;15.80;12.73;;;;;;;3.84;87.65;95647.84;4934252;29;20205;-81
2022/12/06 06:24:45;;;;;;;14.23;10.93;;;;;;;3.84;87.50;95656.31;4934132;29;20209;-79
2022/12/06 06:27:11;;;;;;;15.03;10.00;;;;;;;3.85;88.11;95655.34;4934235;29;20205;-80
2022/12/06 06:29:38;;;;;;;22.77;17.57;;;;;;;3.83;87.69;95656.44;4934524;29;20222;-82
2022/12/06 06:32:08;;;;;;;18.67;15.10;;;;;;;3.83;87.59;95666.63;4934385;29;20212;-83
2022/12/06 06:34:34;;;;;;;15.77;12.73;;;;;;;3.87;87.29;95666.19;4934302;29;20301;-81
2022/12/06 06:37:00;;;;;;;12.83;10.53;;;;;;;3.85;87.41;95659.66;4934046;29;20209;-81
2022/12/06 06:39:28;;;;;;;12.20;10.03;;;;;;;3.87;87.20;95660.28;4933680;29;20250;-81
2022/12/06 06:41:55;;;;;;;13.73;10.20;;;;;;;3.90;87.46;95667.66;4933698;29;20210;-80
2022/12/06 06:44:21;;;;;;;13.40;10.57;;;;;;;3.91;87.49;95662.44;4933861;29;20212;-80
2022/12/06 06:46:48;;;;;;;15.07;10.93;;;;;;;3.92;87.62;95656.41;4933533;29;20673;-80
2022/12/06 06:49:16;;;;;;;12.87;10.03;;;;;;;3.89;87.65;95659.22;4932885;29;20717;-80
2022/12/06 06:51:43;;;;;;;12.90;10.67;;;;;;;3.90;87.46;95665.13;4933601;29;20209;-82
2022/12/06 06:54:09;;;;;;;12.97;10.80;;;;;;;3.93;87.23;95664.88;4933130;29;20630;-80
2022/12/06 06:56:37;;;;;;;13.87;11.10;;;;;;;3.92;87.49;95666.59;4933554;29;20206;-80
2022/12/06 06:59:04;;;;;;;12.97;10.03;;;;;;;3.94;87.35;95664.72;4934122;29;20233;-81
2022/12/06 07:01:30;;;;;;;13.60;11.10;;;;;;;3.96;87.13;95662.06;4917003;29;20194;-80
2022/12/06 07:03:57;;;;;;;13.77;10.97;;;;;;;3.96;87.01;95664.59;4919658;29;20216;-82
2022/12/06 07:06:24;;;;;;;14.47;10.70;;;;;;;3.99;87.54;95661.78;4933350;29;20225;-81
2022/12/06 07:08:50;;;;;;;13.07;10.43;;;;;;;4.00;87.04;95665.94;4933526;29;20229;-82
2022/12/06 07:11:17;;;;;;;12.70;10.47;;;;;;;4.00;87.12;95665.94;4932846;29;20636;-80
2022/12/06 07:13:45;;;;;;;12.80;10.37;;;;;;;4.02;87.12;95664.06;4932393;29;20240;-81
2022/12/06 07:16:15;;;;;;;14.13;10.43;;;;;;;4.00;86.62;95660.84;4933599;29;20202;-81
2022/12/06 07:18:42;;;;;;;11.53;10.00;;;;;;;3.98;86.68;95676.28;4932875;29;20641;-81
2022/12/06 07:21:10;;;;;;;12.80;10.33;;;;;;;3.99;86.90;95671.97;4933489;29;20205;-81
2022/12/06 07:23:37;;;;;;;12.80;10.80;;;;;;;4.01;86.57;95670.09;4932906;29;20670;-82
2022/12/06 07:26:06;;;;;;;15.90;10.60;;;;;;;4.04;86.31;95669.84;4932892;29;20308;-81
2022/12/06 07:28:33;;;;;;;12.90;10.30;;;;;;;4.05;85.93;95671.44;4933172;29;20218;-82
2022/12/06 07:31:09;;;;;;;13.90;9.97;;;;;;;4.05;85.55;95666.31;4933220;29;20213;-81
2022/12/06 07:33:35;;;;;;;13.80;10.33;;;;;;;4.04;85.58;95668.06;4932764;29;20221;-82
2022/12/06 07:36:02;;;;;;;13.97;10.80;;;;;;;4.10;85.51;95666.75;4933200;29;20209;-80
2022/12/06 07:38:28;;;;;;;13.57;10.30;;;;;;;4.13;85.49;95669.03;4932272;29;20227;-80
2022/12/06 07:40:55;;;;;;;11.97;10.17;;;;;;;4.21;85.14;95665.81;4932672;29;20251;-82
2022/12/06 07:46:11;;;;;;;13.30;11.87;;;;;;;4.33;84.50;95675.72;4932756;29;20260;-82
2022/12/06 07:48:38;;;;;;;12.40;11.00;;;;;;;4.42;83.95;95669.81;4932652;29;20234;-80
2022/12/06 07:51:04;;;;;;;14.43;11.73;;;;;;;4.47;83.61;95665.09;4932783;29;20201;-80
2022/12/06 07:53:31;;;;;;;12.87;11.07;;;;;;;4.55;83.36;95664.41;4931550;29;20232;-81
2022/12/06 07:55:57;;;;;;;11.80;10.37;;;;;;;4.55;82.87;95663.63;4932664;29;20613;-81
2022/12/06 07:58:24;;;;;;;10.83;9.60;;;;;;;4.54;82.43;95669.66;4932645;29;20230;-81
2022/12/06 08:00:50;;;;;;;12.83;10.00;;;;;;;4.62;83.52;95667.22;4932041;29;20217;-81
2022/12/06 08:03:18;;;;;;;11.57;9.83;;;;;;;4.62;82.17;95665.44;4932892;29;20212;-80
2022/12/06 08:05:53;;;;;;;10.43;9.33;;;;;;;4.74;82.15;95663.56;4933049;29;20690;-81
2022/12/06 08:08:19;;;;;;;11.43;9.73;;;;;;;4.92;82.22;95656.78;4932330;29;20232;-80
2022/12/06 08:10:46;;;;;;;10.60;9.50;;;;;;;4.91;80.26;95654.38;4932776;29;20233;-82
2022/12/06 08:13:12;;;;;;;11.00;8.87;;;;;;;5.11;80.98;95663.56;4932609;29;20224;-80
2022/12/06 08:15:39;;;;;;;11.70;9.80;;;;;;;5.11;80.42;95661.00;4932981;29;20573;-81
2022/12/06 08:18:06;;;;;;;10.10;8.93;;;;;;;5.07;80.11;95659.69;4931950;29;20229;-82
2022/12/06 08:20:33;;;;;;;12.87;9.33;;;;;;;4.91;80.31;95659.47;4932951;29;20197;-81
2022/12/06 08:23:00;;;;;;;10.27;8.60;;;;;;;4.86;79.98;95655.59;4932764;29;20205;-82
2022/12/06 08:25:26;;;;;;;11.47;9.47;;;;;;;4.89;80.30;95649.41;4934702;29;20205;-81
2022/12/06 08:27:53;;;;;;;12.30;8.83;;;;;;;4.91;80.58;95647.53;4936008;29;20210;-81
2022/12/06 08:30:19;;;;;;;10.30;9.20;;;;;;;5.03;81.06;95648.94;4936458;29;20198;-81
2022/12/06 08:32:46;;;;;;;10.37;8.53;;;;;;;5.05;80.34;95656.47;4936740;29;20205;-80
2022/12/06 08:35:12;;;;;;;9.93;8.67;;;;;;;5.09;80.18;95668.00;4936156;29;20230;-82
2022/12/06 08:37:40;;;;;;;11.40;9.57;;;;;;;5.15;80.46;95664.91;4935772;29;20204;-82
2022/12/06 08:40:08;;;;;;;10.43;9.33;;;;;;;5.15;80.09;95668.25;4936428;29;20205;-82
2022/12/06 08:42:34;;;;;;;10.53;9.10;;;;;;;5.16;80.19;95664.75;4936123;29;20616;-80
2022/12/06 08:45:01;;;;;;;10.20;9.10;;;;;;;5.19;80.34;95663.69;4936470;29;20194;-82
2022/12/06 08:47:27;;;;;;;10.30;9.27;;;;;;;5.19;80.43;95661.94;4935965;29;20233;-81
2022/12/06 08:49:54;;;;;;;10.37;9.00;;;;;;;5.16;79.83;95664.75;4936443;29;20229;-82
2022/12/06 08:52:20;;;;;;;10.97;9.17;;;;;;;5.13;80.52;95677.78;4935183;29;20210;-82
2022/12/06 08:54:48;;;;;;;11.07;9.67;;;;;;;5.13;80.39;95665.03;4936057;29;20248;-81
2022/12/06 08:57:14;;;;;;;11.57;9.20;;;;;;;5.11;80.47;95672.03;4936221;29;20220;-82
2022/12/06 08:59:41;;;;;;;11.53;9.37;;;;;;;5.03;80.35;95669.34;4935413;29;20229;-81
2022/12/06 09:02:10;;;;;;;9.77;8.77;;;;;;;4.97;80.38;95672.50;4936304;29;20212;-82
2022/12/06 09:04:36;;;;;;;10.07;8.97;;;;;;;4.98;80.90;95676.66;4934687;29;20680;-81
2022/12/06 09:07:02;;;;;;;10.07;8.50;;;;;;;5.08;81.19;95672.31;4935352;29;20213;-82
2022/12/06 09:09:29;;;;;;;11.30;8.80;;;;;;;5.11;81.20;95678.88;4935494;29;20240;-80
2022/12/06 09:11:57;;;;;;;9.40;8.40;;;;;;;5.12;80.34;95677.94;4935841;29;20233;-81
2022/12/06 09:14:23;;;;;;;10.17;8.30;;;;;;;5.14;80.41;95676.06;4935225;29;20252;-81
2022/12/06 09:16:51;;;;;;;10.93;8.93;;;;;;;5.12;80.37;95677.94;4935327;29;20214;-81
2022/12/06 09:19:18;;;;;;;9.13;8.23;;;;;;;5.03;80.06;95678.75;4934682;29;20236;-81
2022/12/06 09:21:45;;;;;;;10.23;8.70;;;;;;;5.06;80.52;95678.47;4935313;29;20302;-81
2022/12/06 09:24:13;;;;;;;9.97;8.27;;;;;;;5.14;80.57;95678.59;4935551;29;20206;-81
2022/12/06 09:26:39;;;;;;;9.10;8.00;;;;;;;5.20;81.04;95683.94;4935434;29;20202;-81
2022/12/06 09:29:07;;;;;;;11.47;8.70;;;;;;;5.24;80.54;95668.34;4934939;29;20226;-81
2022/12/06 09:31:38;;;;;;;9.43;8.00;;;;;;;5.27;80.79;95661.22;4935245;29;20714;-81
2022/12/06 09:34:05;;;;;;;9.53;8.20;;;;;;;5.31;80.04;95669.38;4934995;29;20309;-81
2022/12/06 09:36:31;;;;;;;10.30;8.70;;;;;;;5.34;80.09;95672.47;4933984;29;20210;-81
2022/12/06 09:39:01;;;;;;;9.90;8.63;;;;;;;5.36;80.15;95665.47;4934738;29;20315;-81
2022/12/06 09:41:45;;;;;;;9.50;7.60;;;;;;;5.35;80.50;95673.28;4935029;29;20205;-80
2022/12/06 09:44:31;;;;;;;8.60;7.57;;;;;;;5.37;80.70;95664.53;4935326;29;20205;-80
2022/12/06 09:47:10;;;;;;;8.43;7.23;;;;;;;5.35;80.64;95665.63;4934474;29;20193;-82
2022/12/06 09:49:48;;;;;;;10.50;7.73;;;;;;;5.29;81.03;95661.88;4934514;29;20233;-82
2022/12/06 09:52:43;;;;;;;7.77;6.77;;;;;;;5.18;81.50;95651.84;4933539;29;20316;-81
2022/12/06 09:55:19;;;;;;;8.23;6.87;;;;;;;5.09;82.22;95650.94;4934489;29;20225;-80
2022/12/06 09:57:51;;;;;;;7.90;7.10;;;;;;;5.12;81.87;95637.09;4934393;29;20272;-82
2022/12/06 10:00:21;;;;;;;6.90;6.00;;;;;;;5.07;81.53;95637.53;4934460;29;20577;-81
2022/12/06 10:03:26;;;;;;;7.90;6.73;;;;;;;5.11;81.19;95638.84;4934300;29;20202;-81
2022/12/06 10:06:00;;;;;;;7.43;6.17;;;;;;;5.19;80.88;95633.84;4934476;29;20213;-80
2022/12/06 10:08:44;;;;;;;7.67;5.93;;;;;;;5.22;81.12;95633.53;4933960;29;20304;-81
2022/12/06 10:11:23;;;;;;;6.90;6.00;;;;;;;5.33;80.86;95632.56;4933964;29;20201;-81
2022/12/06 10:14:01;;;;;;;6.20;5.60;;;;;;;5.29;80.76;95626.13;4934699;29;20210;-82
2022/12/06 10:16:43;;;;;;;6.53;5.83;;;;;;;5.29;81.20;95628.69;4934410;29;20732;-81
2022/12/06 10:19:24;;;;;;;6.13;5.50;;;;;;;5.28;81.54;95621.97;4934095;29;20233;-81
2022/12/06 10:22:02;;;;;;;6.53;5.80;;;;;;;5.29;81.55;95615.91;4934075;29;20221;-82
2022/12/06 10:24:45;;;;;;;8.73;5.90;;;;;;;5.33;81.72;95617.25;4915819;29;20190;-81
2022/12/06 10:27:15;;;;;;;6.80;5.63;;;;;;;5.34;81.57;95611.19;4915516;29;20619;-82
2022/12/06 10:29:53;;;;;;;6.63;5.97;;;;;;;5.39;82.17;95608.19;4916126;29;20226;-82
2022/12/06 10:32:35;;;;;;;6.73;5.90;;;;;;;5.47;82.03;95603.19;4933673;29;20610;-81
2022/12/06 10:35:15;;;;;;;6.63;5.80;;;;;;;5.51;82.15;95594.28;4934304;29;20210;-80
2022/12/06 10:37:54;;;;;;;6.43;5.70;;;;;;;5.40;81.87;95591.94;4933595;29;20208;-81
2022/12/06 10:40:26;;;;;;;7.23;6.00;;;;;;;5.38;81.32;95597.22;4934050;29;20212;-80
2022/12/06 10:43:00;;;;;;;6.13;5.53;;;;;;;5.37;81.92;95597.34;4933304;29;20201;-81
2022/12/06 10:48:22;;;;;;;5.60;5.10;;;;;;;5.38;80.98;95588.75;4933572;29;20233;-81
2022/12/06 10:50:55;;;;;;;6.33;5.27;;;;;;;5.27;79.99;95594.03;4933486;29;20209;-81
2022/12/06 10:53:25;;;;;;;6.80;5.23;;;;;;;5.32;80.68;95589.31;4932971;29;20205;-82
2022/12/06 10:55:58;;;;;;;6.23;5.63;;;;;;;5.35;81.32;95578.81;4934245;29;20232;-81
2022/12/06 10:58:32;;;;;;;7.47;6.33;;;;;;;5.31;81.60;95578.28;4932825;29;20727;-81
2022/12/06 11:01:01;;;;;;;8.20;5.63;;;;;;;5.28;81.35;95581.13;4933394;29;20205;-82
2022/12/06 11:03:36;;;;;;;6.13;5.13;;;;;;;5.31;80.72;95575.75;4933105;29;20210;-80
2022/12/06 11:06:09;;;;;;;5.83;5.23;;;;;;;5.29;81.48;95582.75;4933508;29;20205;-82
2022/12/06 11:08:39;;;;;;;6.30;5.30;;;;;;;5.33;81.33;95571.31;4933048;29;20252;-81
2022/12/06 11:11:13;;;;;;;6.37;5.70;;;;;;;5.37;81.50;95566.72;4933279;29;20197;-81
2022/12/06 11:13:46;;;;;;;5.50;4.90;;;;;;;5.36;80.66;95571.00;4933215;29;20669;-80
2022/12/06 11:16:17;;;;;;;6.47;5.30;;;;;;;5.28;80.00;95588.78;4933162;29;20658;-82
2022/12/06 11:18:47;;;;;;;5.20;4.70;;;;;;;5.35;80.41;95582.16;4933333;29;20232;-81
2022/12/06 11:21:24;;;;;;;5.30;4.80;;;;;;;5.36;81.66;95578.69;4933175;29;20586;-81
2022/12/06 11:23:56;;;;;;;5.90;5.30;;;;;;;5.44;81.36;95580.47;4933067;29;20217;-80
2022/12/06 11:26:30;;;;;;;5.90;5.30;;;;;;;5.42;81.00;95572.16;4932532;29;20205;-81
2022/12/06 11:29:04;;;;;;;5.37;4.73;;;;;;;5.39;80.00;95575.00;4932547;29;20238;-82
2022/12/06 11:31:33;;;;;;;5.30;4.80;;;;;;;5.39;80.17;95575.81;4933411;29;20208;-80
2022/12/06 11:34:03;;;;;;;5.27;4.77;;;;;;;5.48;80.35;95563.94;4933195;29;20247;-79
2022/12/06 11:36:29;;;;;;;5.43;4.90;;;;;;;5.50;79.30;95567.16;4933263;29;20197;-79
2022/12/06 11:38:56;;;;;;;5.10;4.47;;;;;;;5.55;79.66;95570.06;4933423;29;20295;-81
2022/12/06 11:41:26;;;;;;;5.13;4.70;;;;;;;5.59;79.87;95568.81;4933122;29;20216;-80
2022/12/06 11:43:54;;;;;;;5.00;4.50;;;;;;;5.57;79.13;95573.28;4932099;29;20209;-79
2022/12/06 11:46:22;;;;;;;5.67;5.07;;;;;;;5.63;79.30;95579.53;4933310;29;20236;-81
2022/12/06 11:48:49;;;;;;;5.10;4.60;;;;;;;5.63;79.31;95582.91;4932735;29;20229;-80
2022/12/06 11:51:20;;;;;;;5.47;4.83;;;;;;;5.63;80.01;95577.78;4932394;29;20665;-81
2022/12/06 11:53:55;;;;;;;7.00;5.47;;;;;;;5.67;80.20;95575.75;4932086;29;20217;-81
2022/12/06 11:56:25;;;;;;;5.80;5.20;;;;;;;5.70;80.49;95571.16;4933626;29;20231;-81
2022/12/06 11:59:02;;;;;;;5.47;4.83;;;;;;;5.69;80.37;95577.22;4932732;29;20221;-81
2022/12/06 12:01:38;;;;;;;5.33;4.80;;;;;;;5.70;79.88;95585.69;4930084;29;20197;-79
2022/12/06 12:04:30;;;;;;;5.67;4.60;;;;;;;5.68;79.37;95579.91;4932206;29;20193;-81
2022/12/06 12:07:00;;;;;;;5.67;4.23;;;;;;;5.68;79.69;95583.28;4932834;29;20201;-81
2022/12/06 12:09:30;;;;;;;4.87;4.37;;;;;;;5.70;79.65;95586.50;4932285;29;20221;-80
2022/12/06 12:12:04;;;;;;;4.83;4.10;;;;;;;5.70;79.55;95576.28;4932042;29;20662;-79
2022/12/06 12:14:37;;;;;;;4.63;4.20;;;;;;;5.69;79.72;95578.97;4932250;29;20220;-80
2022/12/06 12:17:12;;;;;;;4.43;4.03;;;;;;;5.68;79.73;95577.34;4913240;29;20202;-79
2022/12/06 12:19:43;;;;;;;4.67;4.00;;;;;;;5.68;79.75;95579.91;4912902;29;20225;-82